Shoukeimaruno.3 — JI3587 — position and weather

sailwx.info

Track history (hours):
 
Tides and Currents Weather Stations Pressure Air Temp Water Temp Dewpoint Dewpoint Depression Visibility Wind Speed Wind Dir Waves Ship Positions

Shoukeimaruno.3

Last reported at 2017-May-21 17:26 UTC. Time now 2017-May-25 16:11 UTC.
Position N 34°43' E 139°04'.

Length 77 m; draft 4.2 m.

Type: Cargo ship. MMSI: 431300325.

Date/timePositionNaut miles runAvg speedWind from/ knotsBaromVisibWave heightAir tempDewpointWater temp
2017-May-21 17:26N 34°43' E 139°04'510.3
2017-May-21 16:58N 34°47' E 139°07'510.7
2017-May-21 16:30N 34°51' E 139°10'1111.1
2017-May-21 15:32N 34°58' E 139°21'111.1
2017-May-21 15:28N 34°58' E 139°22'511.1
2017-May-21 15:00N 35°00' E 139°27'510.8
2017-May-21 14:30N 35°03' E 139°33'1111.2
2017-May-21 13:30N 35°09' E 139°44'510.8
2017-May-21 13:00N 35°14' E 139°46'511.0
2017-May-21 12:30N 35°19' E 139°43'5 9.0
2017-May-21 11:58N 35°23' E 139°40'0 0.0
2017-May-21 11:28N 35°23' E 139°40'0 0.0
2017-May-21 10:58N 35°23' E 139°40'0 0.0
2017-May-21 10:28N 35°23' E 139°40'0 0.0
2017-May-21 09:58N 35°23' E 139°40'1 1.2
2017-May-21 09:19N 35°24' E 139°40'0 0.0
2017-May-21 08:58N 35°24' E 139°40'0 0.0
2017-May-21 08:28N 35°24' E 139°40'0 0.0
2017-May-21 07:58N 35°24' E 139°40'0 0.0
2017-May-21 07:30N 35°24' E 139°40'0 0.0
2017-May-21 07:01N 35°24' E 139°40'0 0.3
2017-May-21 06:31N 35°24' E 139°40'1 1.2
2017-May-21 06:00N 35°24' E 139°40'0 0.0
2017-May-21 05:30N 35°24' E 139°40'0 0.1
2017-May-21 05:00N 35°24' E 139°40'0 0.0
2017-May-21 04:30N 35°24' E 139°40'0 0.0
2017-May-21 04:00N 35°24' E 139°40'0 0.0
2017-May-21 03:30N 35°24' E 139°40'0 0.0
2017-May-21 03:00N 35°24' E 139°40'0 0.0
2017-May-21 02:30N 35°24' E 139°40'0 0.0
2017-May-21 02:00N 35°23' E 139°40'0 0.0
2017-May-21 01:30N 35°23' E 139°40'0 0.0
2017-May-21 01:00N 35°23' E 139°40'0 0.0
2017-May-21 00:30N 35°23' E 139°40'0 0.0
2017-May-21 00:00N 35°23' E 139°40'0 0.0
2017-May-20 23:30N 35°23' E 139°40'0 0.1
2017-May-20 22:57N 35°23' E 139°40'0 0.1
2017-May-20 22:30N 35°23' E 139°40'0 0.0
2017-May-20 22:00N 35°23' E 139°40'0 0.0
2017-May-20 21:30N 35°23' E 139°40'0 0.0
2017-May-20 21:00N 35°23' E 139°40'0 0.0
2017-May-20 20:30N 35°23' E 139°40'0 0.0
2017-May-20 20:00N 35°23' E 139°40'0 0.0
2017-May-20 19:30N 35°23' E 139°40'0 0.0
2017-May-20 19:00N 35°23' E 139°40'0 0.1
2017-May-20 18:31N 35°23' E 139°40'2 4.6
2017-May-20 18:01N 35°22' E 139°42'612.5
2017-May-20 17:31N 35°16' E 139°46'612.0
2017-May-20 17:00N 35°10' E 139°47'2 0.1
2017-May-19 10:01N 35°13' E 139°46'211.0
2017-May-19 09:51N 35°14' E 139°47'410.9
2017-May-19 09:30N 35°18' E 139°44'611.3
2017-May-19 09:00N 35°23' E 139°41'3 6.6
2017-May-19 08:30N 35°24' E 139°37'0 0.0
2017-May-19 07:58N 35°24' E 139°37'0 0.0
2017-May-19 07:31N 35°24' E 139°37'0 0.0
2017-May-19 07:01N 35°24' E 139°37'0 0.0
2017-May-19 06:30N 35°24' E 139°37'0 0.0
2017-May-19 06:01N 35°24' E 139°37'0 0.0
2017-May-19 05:31N 35°24' E 139°37'0 0.0
2017-May-19 05:01N 35°24' E 139°37'0 0.0
2017-May-19 04:31N 35°24' E 139°37'0 0.0
2017-May-19 04:01N 35°24' E 139°37'0 0.0
2017-May-19 03:31N 35°24' E 139°37'0 0.0
2017-May-19 03:01N 35°24' E 139°37'0 0.0
2017-May-19 02:31N 35°24' E 139°37'0 0.0
2017-May-19 02:01N 35°24' E 139°37'0 0.0
2017-May-19 01:31N 35°24' E 139°37'0 0.0
2017-May-19 01:01N 35°24' E 139°37'2 4.0
2017-May-19 00:31N 35°24' E 139°40'0 0.5
2017-May-19 00:01N 35°23' E 139°40'1 1.7
2017-May-18 23:31N 35°23' E 139°41'510.0
2017-May-18 23:00N 35°18' E 139°44'611.1
2017-May-18 22:31N 35°13' E 139°47'611.8
2017-May-18 22:00N 35°08' E 139°45'4 0.1
2017-May-17 02:23N 35°11' E 139°45'513.0
2017-May-17 02:01N 35°16' E 139°46'712.9
2017-May-17 01:30N 35°22' E 139°42'3 5.3
2017-May-17 00:59N 35°24' E 139°40'0 0.0
2017-May-17 00:29N 35°24' E 139°40'0 0.0
2017-May-16 23:59N 35°24' E 139°40'0 0.0
2017-May-16 23:29N 35°24' E 139°40'0 0.0
2017-May-16 22:59N 35°24' E 139°40'1 2.5
2017-May-16 22:28N 35°23' E 139°40'0 0.0
2017-May-16 21:58N 35°23' E 139°40'0 0.0
2017-May-16 21:28N 35°23' E 139°40'0 0.0
2017-May-16 20:58N 35°23' E 139°40'0 0.0
2017-May-16 20:28N 35°23' E 139°40'0 0.0
2017-May-16 19:58N 35°23' E 139°40'0 0.0
2017-May-16 19:28N 35°23' E 139°40'0 0.0
2017-May-16 18:58N 35°23' E 139°40'0 0.0
2017-May-16 18:25N 35°23' E 139°40'0 0.0
2017-May-16 17:58N 35°23' E 139°40'0 0.0
2017-May-16 17:28N 35°23' E 139°40'0 0.0
2017-May-16 16:58N 35°23' E 139°40'0 0.0
2017-May-16 16:28N 35°23' E 139°40'0 0.0
2017-May-16 15:58N 35°23' E 139°40'0 0.0
2017-May-16 15:25N 35°23' E 139°40'0 0.0
2017-May-16 14:58N 35°23' E 139°40'0 0.0
2017-May-16 14:28N 35°23' E 139°40'0 0.0
2017-May-16 13:28N 35°23' E 139°40'0 0.0
2017-May-16 12:58N 35°23' E 139°40'0 0.0
2017-May-16 12:28N 35°23' E 139°40'1 1.2
2017-May-16 12:01N 35°23' E 139°41'611.3
2017-May-16 11:30N 35°26' E 139°47'4 8.4
2017-May-16 11:00N 35°23' E 139°50'2 4.7
2017-May-16 10:31N 35°22' E 139°53'0 0.0
2017-May-16 09:59N 35°22' E 139°53'0 0.1
2017-May-16 09:29N 35°22' E 139°53'0 0.1
2017-May-16 08:59N 35°22' E 139°53'0 0.0
2017-May-16 08:29N 35°22' E 139°53'0 0.0
2017-May-16 07:59N 35°22' E 139°53'0 0.0
2017-May-16 07:26N 35°22' E 139°53'0 0.0
2017-May-16 06:59N 35°22' E 139°53'0 0.0
2017-May-16 06:29N 35°22' E 139°53'0 0.0
2017-May-16 05:59N 35°22' E 139°53'0 0.0
2017-May-16 05:29N 35°22' E 139°53'0 0.0
2017-May-16 05:00N 35°22' E 139°53'0 0.0
2017-May-16 04:30N 35°22' E 139°53'0 0.0
2017-May-16 04:00N 35°22' E 139°53'0 0.3
2017-May-16 03:30N 35°22' E 139°52'3 5.2
2017-May-16 03:00N 35°24' E 139°50'3 5.1
2017-May-16 02:30N 35°25' E 139°47'3 5.9
2017-May-16 01:59N 35°23' E 139°44'0 0.1
2017-May-16 01:29N 35°23' E 139°44'4 7.7
2017-May-16 01:00N 35°19' E 139°44'611.5
2017-May-16 00:30N 35°14' E 139°47'  
Track history (hours):
 
Tides and Currents Weather Stations Pressure Air Temp Water Temp Dewpoint Dewpoint Depression Visibility Wind Speed Wind Dir Waves Ship Positions

Shoukeimaruno.3

Last reported at 2017-May-21 17:26 UTC. Time now 2017-May-25 16:11 UTC.
Position N 34°43' E 139°04'.

Length 77 m; draft 4.2 m.

Type: Cargo ship. MMSI: 431300325.

Date/timePositionNaut miles runAvg speedWind from/ knotsBaromVisibWave heightAir tempDewpointWater temp
2017-May-21 17:26N 34°43' E 139°04'510.3
2017-May-21 16:58N 34°47' E 139°07'510.7
2017-May-21 16:30N 34°51' E 139°10'1111.1
2017-May-21 15:32N 34°58' E 139°21'111.1
2017-May-21 15:28N 34°58' E 139°22'511.1
2017-May-21 15:00N 35°00' E 139°27'510.8
2017-May-21 14:30N 35°03' E 139°33'1111.2
2017-May-21 13:30N 35°09' E 139°44'510.8
2017-May-21 13:00N 35°14' E 139°46'511.0
2017-May-21 12:30N 35°19' E 139°43'5 9.0
2017-May-21 11:58N 35°23' E 139°40'0 0.0
2017-May-21 11:28N 35°23' E 139°40'0 0.0
2017-May-21 10:58N 35°23' E 139°40'0 0.0
2017-May-21 10:28N 35°23' E 139°40'0 0.0
2017-May-21 09:58N 35°23' E 139°40'1 1.2
2017-May-21 09:19N 35°24' E 139°40'0 0.0
2017-May-21 08:58N 35°24' E 139°40'0 0.0
2017-May-21 08:28N 35°24' E 139°40'0 0.0
2017-May-21 07:58N 35°24' E 139°40'0 0.0
2017-May-21 07:30N 35°24' E 139°40'0 0.0
2017-May-21 07:01N 35°24' E 139°40'0 0.3
2017-May-21 06:31N 35°24' E 139°40'1 1.2
2017-May-21 06:00N 35°24' E 139°40'0 0.0
2017-May-21 05:30N 35°24' E 139°40'0 0.1
2017-May-21 05:00N 35°24' E 139°40'0 0.0
2017-May-21 04:30N 35°24' E 139°40'0 0.0
2017-May-21 04:00N 35°24' E 139°40'0 0.0
2017-May-21 03:30N 35°24' E 139°40'0 0.0
2017-May-21 03:00N 35°24' E 139°40'0 0.0
2017-May-21 02:30N 35°24' E 139°40'0 0.0
2017-May-21 02:00N 35°23' E 139°40'0 0.0
2017-May-21 01:30N 35°23' E 139°40'0 0.0
2017-May-21 01:00N 35°23' E 139°40'0 0.0
2017-May-21 00:30N 35°23' E 139°40'0 0.0
2017-May-21 00:00N 35°23' E 139°40'0 0.0
2017-May-20 23:30N 35°23' E 139°40'0 0.1
2017-May-20 22:57N 35°23' E 139°40'0 0.1
2017-May-20 22:30N 35°23' E 139°40'0 0.0
2017-May-20 22:00N 35°23' E 139°40'0 0.0
2017-May-20 21:30N 35°23' E 139°40'0 0.0
2017-May-20 21:00N 35°23' E 139°40'0 0.0
2017-May-20 20:30N 35°23' E 139°40'0 0.0
2017-May-20 20:00N 35°23' E 139°40'0 0.0
2017-May-20 19:30N 35°23' E 139°40'0 0.0
2017-May-20 19:00N 35°23' E 139°40'0 0.1
2017-May-20 18:31N 35°23' E 139°40'2 4.6
2017-May-20 18:01N 35°22' E 139°42'612.5
2017-May-20 17:31N 35°16' E 139°46'612.0
2017-May-20 17:00N 35°10' E 139°47'2 0.1
2017-May-19 10:01N 35°13' E 139°46'211.0
2017-May-19 09:51N 35°14' E 139°47'410.9
2017-May-19 09:30N 35°18' E 139°44'611.3
2017-May-19 09:00N 35°23' E 139°41'3 6.6
2017-May-19 08:30N 35°24' E 139°37'0 0.0
2017-May-19 07:58N 35°24' E 139°37'0 0.0
2017-May-19 07:31N 35°24' E 139°37'0 0.0
2017-May-19 07:01N 35°24' E 139°37'0 0.0
2017-May-19 06:30N 35°24' E 139°37'0 0.0
2017-May-19 06:01N 35°24' E 139°37'0 0.0
2017-May-19 05:31N 35°24' E 139°37'0 0.0
2017-May-19 05:01N 35°24' E 139°37'0 0.0
2017-May-19 04:31N 35°24' E 139°37'0 0.0
2017-May-19 04:01N 35°24' E 139°37'0 0.0
2017-May-19 03:31N 35°24' E 139°37'0 0.0
2017-May-19 03:01N 35°24' E 139°37'0 0.0
2017-May-19 02:31N 35°24' E 139°37'0 0.0
2017-May-19 02:01N 35°24' E 139°37'0 0.0
2017-May-19 01:31N 35°24' E 139°37'0 0.0
2017-May-19 01:01N 35°24' E 139°37'2 4.0
2017-May-19 00:31N 35°24' E 139°40'0 0.5
2017-May-19 00:01N 35°23' E 139°40'1 1.7
2017-May-18 23:31N 35°23' E 139°41'510.0
2017-May-18 23:00N 35°18' E 139°44'611.1
2017-May-18 22:31N 35°13' E 139°47'611.8
2017-May-18 22:00N 35°08' E 139°45'4 0.1
2017-May-17 02:23N 35°11' E 139°45'513.0
2017-May-17 02:01N 35°16' E 139°46'712.9
2017-May-17 01:30N 35°22' E 139°42'3 5.3
2017-May-17 00:59N 35°24' E 139°40'0 0.0
2017-May-17 00:29N 35°24' E 139°40'0 0.0
2017-May-16 23:59N 35°24' E 139°40'0 0.0
2017-May-16 23:29N 35°24' E 139°40'0 0.0
2017-May-16 22:59N 35°24' E 139°40'1 2.5
2017-May-16 22:28N 35°23' E 139°40'0 0.0
2017-May-16 21:58N 35°23' E 139°40'0 0.0
2017-May-16 21:28N 35°23' E 139°40'0 0.0
2017-May-16 20:58N 35°23' E 139°40'0 0.0
2017-May-16 20:28N 35°23' E 139°40'0 0.0
2017-May-16 19:58N 35°23' E 139°40'0 0.0
2017-May-16 19:28N 35°23' E 139°40'0 0.0
2017-May-16 18:58N 35°23' E 139°40'0 0.0
2017-May-16 18:25N 35°23' E 139°40'0 0.0
2017-May-16 17:58N 35°23' E 139°40'0 0.0
2017-May-16 17:28N 35°23' E 139°40'0 0.0
2017-May-16 16:58N 35°23' E 139°40'0 0.0
2017-May-16 16:28N 35°23' E 139°40'0 0.0
2017-May-16 15:58N 35°23' E 139°40'0 0.0
2017-May-16 15:25N 35°23' E 139°40'0 0.0
2017-May-16 14:58N 35°23' E 139°40'0 0.0
2017-May-16 14:28N 35°23' E 139°40'0 0.0
2017-May-16 13:28N 35°23' E 139°40'0 0.0
2017-May-16 12:58N 35°23' E 139°40'0 0.0
2017-May-16 12:28N 35°23' E 139°40'1 1.2
2017-May-16 12:01N 35°23' E 139°41'611.3
2017-May-16 11:30N 35°26' E 139°47'4 8.4
2017-May-16 11:00N 35°23' E 139°50'2 4.7
2017-May-16 10:31N 35°22' E 139°53'0 0.0
2017-May-16 09:59N 35°22' E 139°53'0 0.1
2017-May-16 09:29N 35°22' E 139°53'0 0.1
2017-May-16 08:59N 35°22' E 139°53'0 0.0
2017-May-16 08:29N 35°22' E 139°53'0 0.0
2017-May-16 07:59N 35°22' E 139°53'0 0.0
2017-May-16 07:26N 35°22' E 139°53'0 0.0
2017-May-16 06:59N 35°22' E 139°53'0 0.0
2017-May-16 06:29N 35°22' E 139°53'0 0.0
2017-May-16 05:59N 35°22' E 139°53'0 0.0
2017-May-16 05:29N 35°22' E 139°53'0 0.0
2017-May-16 05:00N 35°22' E 139°53'0 0.0
2017-May-16 04:30N 35°22' E 139°53'0 0.0
2017-May-16 04:00N 35°22' E 139°53'0 0.3
2017-May-16 03:30N 35°22' E 139°52'3 5.2
2017-May-16 03:00N 35°24' E 139°50'3 5.1
2017-May-16 02:30N 35°25' E 139°47'3 5.9
2017-May-16 01:59N 35°23' E 139°44'0 0.1
2017-May-16 01:29N 35°23' E 139°44'4 7.7
2017-May-16 01:00N 35°19' E 139°44'611.5
2017-May-16 00:30N 35°14' E 139°47'  

Dump ship's entire track history